Ivalee, Alabama
Current Conditions -  °F | °C
As of 5:55 AM on Sunday 21 Dec 2014 (Local Time) from KGAD Reporting Station
Broken Clouds Broken Clouds  
Wind Chill: 34°   Ceiling: 3600
Heat Index: 34°   Visibility: 7mi
Dew Point: 30°   Wind: 0mph
Humidity: 87%   Direction: NA
Pressure: 30.2"   Gusts: NA
Location:  34.0771°N, 86.0689°W
Report Text: KGAD 211155Z 00000KT 7SM FEW016 BKN036 01/M01 A3020 RMK AO1 10020 21010 57007
Loading
Personal Weather Stations






























Interactive Weather Map New forecast layout! Learn more

10-Day Weather Forecast

Advertisements
Track Severe Weather on mobile